Time;durP1;ratioP1;P1;durP2;ratioP2;P2;SDS_P1;SDS_P2;PMS_P1;PMS_P2;Temp;Humidity;BMP_temperature;BMP_pressure;BME280_temperature;BME280_humidity;BME280_pressure;Samples;Min_cycle;Max_cycle;Signal;HPM_P1;HPM_P2
2022/01/26 00:06:57;;;;;;;30.70;13.60;;;;;;;-5.50;67.05;97473.16;5095301;28;20948;-33
2022/01/26 00:09:26;;;;;;;31.93;12.27;;;;;;;-5.50;66.96;97473.16;5094715;28;20807;-33
2022/01/26 00:11:56;;;;;;;34.53;14.47;;;;;;;-5.50;67.06;97457.63;5094739;28;20447;-34
2022/01/26 00:14:23;;;;;;;32.63;12.30;;;;;;;-5.53;67.26;97457.84;5094919;28;20922;-33
2022/01/26 00:16:51;;;;;;;27.97;10.73;;;;;;;-5.58;66.26;97460.81;5094496;28;20498;-36
2022/01/26 00:19:23;;;;;;;33.87;11.27;;;;;;;-5.61;66.41;97465.41;5094906;28;20466;-33
2022/01/26 00:21:52;;;;;;;21.33;9.93;;;;;;;-5.65;67.33;97464.00;5093721;28;20438;-33
2022/01/26 00:27:22;;;;;;;60.47;17.60;;;;;;;-5.62;67.93;97461.16;5094533;28;20499;-34
2022/01/26 00:30:00;;;;;;;37.97;15.47;;;;;;;-5.61;67.99;97461.06;5094399;28;20493;-33
2022/01/26 00:40:51;;;;;;;23.47;11.53;;;;;;;-5.55;68.89;97464.91;5094354;28;20446;-33
2022/01/26 00:43:24;;;;;;;73.53;28.97;;;;;;;-5.64;69.24;97434.59;5094104;28;20463;-34
2022/01/26 00:45:56;;;;;;;58.73;24.03;;;;;;;-5.49;69.22;97456.66;5094220;28;20910;-33
2022/01/26 00:48:24;;;;;;;32.07;15.20;;;;;;;-5.50;67.86;97449.06;5094149;28;20474;-33
2022/01/26 00:50:52;;;;;;;50.60;15.37;;;;;;;-5.49;66.43;97443.72;5094320;28;20783;-36
2022/01/26 00:53:23;;;;;;;22.53;9.23;;;;;;;-5.46;66.97;97448.69;5094045;28;20637;-35
2022/01/26 00:55:51;;;;;;;37.63;13.37;;;;;;;-5.49;65.03;97443.72;5094167;28;20482;-36
2022/01/26 00:58:20;;;;;;;32.17;14.00;;;;;;;-5.46;64.45;97440.94;5093871;28;20435;-36
2022/01/26 01:00:47;;;;;;;37.47;14.97;;;;;;;-5.42;64.26;97439.75;5093831;28;20439;-36
2022/01/26 01:03:15;;;;;;;30.47;12.23;;;;;;;-5.38;64.16;97440.31;5093800;28;20497;-36
2022/01/26 01:05:49;;;;;;;28.30;13.60;;;;;;;-5.37;63.87;97442.78;5094096;28;20525;-35
2022/01/26 01:08:20;;;;;;;22.77;9.73;;;;;;;-5.32;65.01;97439.00;5094074;28;20443;-36
2022/01/26 01:10:49;;;;;;;34.47;9.93;;;;;;;-5.31;64.32;97441.50;5094016;28;20470;-34
2022/01/26 01:13:19;;;;;;;19.00;8.10;;;;;;;-5.30;64.62;97437.13;5093588;28;20934;-36
2022/01/26 01:15:50;;;;;;;18.37;8.83;;;;;;;-5.19;65.38;97450.03;5093928;28;20524;-36
2022/01/26 01:18:22;;;;;;;25.30;9.23;;;;;;;-5.20;63.56;97438.06;5093966;28;20515;-37
2022/01/26 01:26:42;;;;;;;24.00;11.00;;;;;;;-5.13;65.10;97434.03;5062462;28;20438;-36
2022/01/26 01:29:16;;;;;;;19.60;9.03;;;;;;;-5.08;65.29;97431.06;5093491;28;20475;-36
2022/01/26 01:31:48;;;;;;;19.20;10.87;;;;;;;-5.08;64.50;97431.06;5093490;28;20519;-37
2022/01/26 01:34:19;;;;;;;16.83;8.23;;;;;;;-5.06;64.83;97429.97;5092996;28;20438;-36
2022/01/26 01:36:49;;;;;;;15.57;6.60;;;;;;;-5.02;65.28;97431.38;5093454;28;20477;-37
2022/01/26 01:39:17;;;;;;;19.50;6.80;;;;;;;-4.98;64.94;97419.84;5093768;28;20456;-37
2022/01/26 01:41:47;;;;;;;22.37;9.30;;;;;;;-4.98;64.15;97429.38;5093353;28;20799;-37
2022/01/26 01:44:15;;;;;;;21.40;9.70;;;;;;;-4.97;64.67;97424.09;5094250;28;20449;-38
2022/01/26 01:46:44;;;;;;;24.53;10.93;;;;;;;-4.98;63.17;97417.25;5094094;28;20454;-38
2022/01/26 01:49:13;;;;;;;27.33;10.87;;;;;;;-5.07;63.04;97417.19;5093255;28;20482;-38
2022/01/26 01:51:45;;;;;;;37.17;12.07;;;;;;;-5.16;64.47;97416.16;5093227;28;20442;-34
2022/01/26 01:54:15;;;;;;;25.23;10.50;;;;;;;-5.35;65.37;97394.31;5093550;28;20964;-34
2022/01/26 01:56:44;;;;;;;29.03;11.97;;;;;;;-5.23;66.31;97414.97;5093637;28;20486;-34
2022/01/26 01:59:11;;;;;;;34.87;11.10;;;;;;;-5.24;66.14;97406.38;5093166;28;20446;-34
2022/01/26 02:01:39;;;;;;;30.70;12.13;;;;;;;-5.22;67.01;97403.69;5093095;28;20938;-34
2022/01/26 02:04:08;;;;;;;35.00;11.63;;;;;;;-5.21;67.33;97395.78;5093058;28;20438;-34
2022/01/26 02:06:36;;;;;;;31.70;10.53;;;;;;;-5.18;67.74;97394.72;5093141;28;20447;-34
2022/01/26 02:09:04;;;;;;;50.37;14.57;;;;;;;-5.23;66.61;97386.50;5093462;28;20442;-34
2022/01/26 02:11:31;;;;;;;25.60;13.47;;;;;;;-5.26;66.59;97387.56;5093066;28;20439;-34
2022/01/26 02:14:03;;;;;;;33.33;13.47;;;;;;;-5.27;68.21;97379.91;5093113;28;20439;-34
2022/01/26 02:16:37;;;;;;;25.00;14.00;;;;;;;-5.25;68.32;97378.88;5093334;28;20473;-35
2022/01/26 02:49:45;;;;;;;10.50;5.93;;;;;;;-4.96;63.95;97355.78;5096284;28;20549;-34
2022/01/26 02:52:24;;;;;;;13.33;5.60;;;;;;;-5.01;64.05;97329.44;5096318;28;20427;-34
2022/01/26 02:55:10;;;;;;;11.67;5.07;;;;;;;-4.77;63.84;97343.91;5097106;28;20427;-34
2022/01/26 02:57:50;;;;;;;10.53;4.80;;;;;;;-4.67;63.44;97344.78;5096486;28;20565;-34
2022/01/26 03:00:22;;;;;;;14.67;6.70;;;;;;;-4.60;63.12;97347.72;5096502;28;20481;-36
2022/01/26 03:02:54;;;;;;;11.90;5.13;;;;;;;-4.49;63.28;97346.81;5096085;28;20488;-34
2022/01/26 03:05:27;;;;;;;13.30;6.30;;;;;;;-4.44;63.02;97355.00;5096026;28;20434;-34
2022/01/26 03:07:58;;;;;;;11.47;6.30;;;;;;;-4.40;62.89;97353.81;5096326;28;20441;-34
2022/01/26 03:10:34;;;;;;;9.03;5.20;;;;;;;-4.46;62.65;97355.13;5095897;28;20522;-34
2022/01/26 03:13:06;;;;;;;12.37;6.17;;;;;;;-4.44;61.87;97360.19;5095928;28;20438;-34
2022/01/26 03:15:38;;;;;;;16.87;5.80;;;;;;;-4.44;61.70;97348.06;5095804;28;20457;-35
2022/01/26 03:18:31;;;;;;;9.53;5.40;;;;;;;-4.44;62.44;97360.19;5095775;28;20557;-35
2022/01/26 03:21:02;;;;;;;14.70;6.37;;;;;;;-4.38;62.60;97355.31;5095834;28;20463;-34
2022/01/26 03:29:13;;;;;;;12.70;5.53;;;;;;;-4.19;62.86;97356.38;5095785;28;20541;-34
2022/01/26 03:32:18;;;;;;;8.17;5.00;;;;;;;-4.16;63.17;97356.09;5095914;28;20431;-34
2022/01/26 03:34:39;;;;;;;13.13;5.43;;;;;;;-4.18;62.70;97351.03;5095410;28;20435;-34
2022/01/26 03:37:08;;;;;;;14.07;7.10;;;;;;;-4.25;61.51;97356.88;5095348;28;20497;-34
2022/01/26 03:39:42;;;;;;;20.33;8.60;;;;;;;-4.36;61.81;97358.59;5095408;28;20443;-34
2022/01/26 03:42:14;;;;;;;13.10;6.57;;;;;;;-4.46;61.86;97359.50;5095350;28;20427;-34
2022/01/26 03:44:42;;;;;;;32.13;12.37;;;;;;;-4.51;62.95;97351.31;5095599;28;20428;-34
2022/01/26 03:47:10;;;;;;;24.30;11.40;;;;;;;-4.57;63.43;97358.63;5095229;28;20805;-33
2022/01/26 03:49:37;;;;;;;43.57;14.80;;;;;;;-4.52;64.34;97350.47;5095063;28;20481;-34
2022/01/26 03:52:05;;;;;;;31.00;14.73;;;;;;;-4.47;64.91;97355.25;5095091;28;20439;-36
2022/01/26 03:54:33;;;;;;;26.47;15.40;;;;;;;-4.42;65.10;97351.34;5095135;28;20442;-37
2022/01/26 03:57:00;;;;;;;23.67;13.00;;;;;;;-4.34;65.06;97348.13;5094646;28;20486;-37
2022/01/26 03:59:29;;;;;;;21.63;9.90;;;;;;;-4.28;65.40;97347.59;5095389;28;20450;-38
2022/01/26 04:01:56;;;;;;;13.03;8.23;;;;;;;-4.17;64.94;97347.50;5094997;28;20517;-36
2022/01/26 04:04:23;;;;;;;9.70;4.80;;;;;;;-4.10;65.47;97344.41;5094850;28;20446;-34
2022/01/26 04:06:51;;;;;;;21.77;8.80;;;;;;;-4.02;64.37;97342.78;5095198;28;20805;-33
2022/01/26 04:09:19;;;;;;;38.60;15.20;;;;;;;-3.96;64.21;97336.22;5094780;28;20841;-34
2022/01/26 04:11:49;;;;;;;37.63;19.27;;;;;;;-3.92;63.50;97343.63;5094689;28;20501;-34
2022/01/26 04:14:22;;;;;;;30.70;14.23;;;;;;;-3.86;63.97;97344.88;5094689;28;20981;-34
2022/01/26 04:16:50;;;;;;;23.40;10.70;;;;;;;-3.81;63.29;97349.66;5094943;28;20494;-34
2022/01/26 04:19:19;;;;;;;30.67;14.87;;;;;;;-3.77;64.17;97344.06;5094622;28;20439;-34
2022/01/26 04:22:00;;;;;;;57.73;19.30;;;;;;;-3.72;64.82;97341.91;5094468;28;20531;-33
2022/01/26 04:24:32;;;;;;;44.77;21.43;;;;;;;-3.72;64.27;97347.09;5094575;28;20431;-33
2022/01/26 04:27:03;;;;;;;46.63;16.00;;;;;;;-3.72;64.68;97343.69;5094524;28;20439;-34
2022/01/26 04:29:33;;;;;;;28.50;14.00;;;;;;;-3.72;64.72;97344.50;5094446;28;20822;-34
2022/01/26 04:32:04;;;;;;;29.90;12.23;;;;;;;-3.78;65.03;97329.47;5094389;28;20442;-35
2022/01/26 04:34:32;;;;;;;32.17;10.73;;;;;;;-3.76;64.41;97343.13;5094684;28;20431;-36
2022/01/26 04:37:07;;;;;;;20.07;10.37;;;;;;;-3.77;64.48;97325.09;5094265;28;20562;-37
2022/01/26 04:39:40;;;;;;;20.87;8.60;;;;;;;-3.81;63.46;97328.91;5094306;28;20427;-37
2022/01/26 04:42:12;;;;;;;29.70;13.93;;;;;;;-3.78;64.07;97328.66;5094250;28;20434;-34
2022/01/26 04:44:45;;;;;;;32.87;14.73;;;;;;;-3.79;64.22;97330.41;5094205;28;20489;-35
2022/01/26 04:47:13;;;;;;;24.43;12.83;;;;;;;-3.77;64.41;97333.69;5094117;28;20439;-35
2022/01/26 04:49:40;;;;;;;35.13;13.83;;;;;;;-3.76;64.32;97326.75;5094011;28;20474;-35
2022/01/26 04:52:08;;;;;;;27.93;9.37;;;;;;;-3.70;64.03;97331.38;5093966;28;20446;-36
2022/01/26 04:54:35;;;;;;;11.97;7.17;;;;;;;-3.72;63.84;97320.34;5094797;28;20453;-34
2022/01/26 04:57:02;;;;;;;22.77;9.30;;;;;;;-3.63;63.65;97332.50;5093866;28;20483;-34
2022/01/26 04:59:30;;;;;;;19.30;7.97;;;;;;;-3.58;63.02;97329.50;5094200;28;20447;-35
2022/01/26 05:01:57;;;;;;;15.20;6.50;;;;;;;-3.52;63.07;97323.78;5094116;28;20453;-35
2022/01/26 05:04:25;;;;;;;20.37;8.03;;;;;;;-3.47;63.47;97326.78;5093725;28;20455;-35
2022/01/26 05:06:53;;;;;;;18.10;8.20;;;;;;;-3.39;62.70;97336.50;5093832;28;20438;-36
2022/01/26 05:09:21;;;;;;;12.53;6.83;;;;;;;-3.35;61.90;97333.50;5093343;28;20964;-37
2022/01/26 05:11:51;;;;;;;24.87;11.30;;;;;;;-3.46;62.11;97318.06;5093600;28;20438;-35
2022/01/26 05:14:18;;;;;;;39.10;17.23;;;;;;;-3.27;61.34;97325.00;5093661;28;20447;-37
2022/01/26 05:16:46;;;;;;;24.70;9.77;;;;;;;-3.22;61.09;97340.22;5093831;28;20970;-35
2022/01/26 05:19:13;;;;;;;17.03;9.73;;;;;;;-3.24;60.80;97331.72;5093543;28;20443;-35
2022/01/26 05:21:42;;;;;;;17.57;9.23;;;;;;;-3.17;59.88;97325.84;5093876;28;20443;-34
2022/01/26 05:24:10;;;;;;;28.43;17.97;;;;;;;-3.07;59.28;97330.22;5093848;28;20443;-34
2022/01/26 05:26:38;;;;;;;35.30;13.70;;;;;;;-3.00;59.98;97324.31;5094396;28;20439;-38
2022/01/26 05:29:05;;;;;;;37.70;12.53;;;;;;;-2.96;59.91;97325.69;5093558;28;20452;-39
2022/01/26 05:31:32;;;;;;;22.10;10.30;;;;;;;-2.96;60.35;97325.69;5093706;28;20871;-37
2022/01/26 05:34:00;;;;;;;32.70;13.80;;;;;;;-2.91;59.43;97333.06;5093425;28;20434;-34
2022/01/26 05:36:27;;;;;;;24.43;12.70;;;;;;;-2.89;60.29;97326.78;5093460;28;20443;-35
2022/01/26 05:38:58;;;;;;;19.90;9.43;;;;;;;-2.84;59.88;97328.13;5104158;28;20490;-36
2022/01/26 05:41:25;;;;;;;26.70;12.00;;;;;;;-2.81;59.34;97327.88;5113746;28;20438;-37
2022/01/26 05:43:53;;;;;;;27.00;11.40;;;;;;;-2.74;59.68;97331.53;5114681;28;20457;-35
2022/01/26 05:46:26;;;;;;;32.50;11.70;;;;;;;-2.74;60.23;97323.75;5113919;28;20960;-39
2022/01/26 05:48:55;;;;;;;17.93;8.97;;;;;;;-2.69;60.99;97324.97;5113748;28;20819;-37
2022/01/26 05:51:23;;;;;;;14.73;5.33;;;;;;;-2.66;60.06;97325.66;5113515;28;20452;-36
2022/01/26 05:53:50;;;;;;;20.03;6.80;;;;;;;-2.62;59.86;97327.84;5113595;28;20926;-35
2022/01/26 05:56:19;;;;;;;5.90;4.63;;;;;;;-2.60;59.58;97325.91;5113607;28;20444;-38
2022/01/26 05:58:46;;;;;;;9.93;5.57;;;;;;;-2.63;60.20;97328.78;5113536;28;20573;-39
2022/01/26 06:01:14;;;;;;;11.27;6.70;;;;;;;-2.51;60.31;97325.06;5113222;28;20442;-38
2022/01/26 06:03:41;;;;;;;9.60;5.67;;;;;;;-2.43;59.68;97331.34;5113451;28;20529;-39
2022/01/26 06:06:08;;;;;;;10.37;6.03;;;;;;;-2.42;59.47;97327.78;5113812;28;20438;-37
2022/01/26 06:08:35;;;;;;;10.43;5.70;;;;;;;-2.38;60.51;97342.97;5113413;28;20948;-39
2022/01/26 06:11:04;;;;;;;16.70;7.90;;;;;;;-2.52;60.16;97328.63;5113477;28;20450;-35
2022/01/26 06:13:32;;;;;;;12.53;6.20;;;;;;;-2.31;59.73;97346.63;5113316;28;20441;-35
2022/01/26 06:16:00;;;;;;;9.43;5.37;;;;;;;-2.38;59.69;97323.94;5113491;28;20441;-39
2022/01/26 06:18:27;;;;;;;9.63;5.33;;;;;;;-2.23;60.52;97340.72;5113790;28;20486;-35
2022/01/26 06:20:55;;;;;;;10.97;4.93;;;;;;;-2.18;60.50;97338.50;5117210;28;20441;-36
2022/01/26 06:23:24;;;;;;;18.53;9.73;;;;;;;-2.18;60.00;97338.50;5117199;28;20529;-37
2022/01/26 06:25:52;;;;;;;15.03;8.07;;;;;;;-2.22;60.31;97329.34;5117467;28;20873;-36
2022/01/26 06:28:19;;;;;;;30.33;10.77;;;;;;;-2.09;60.63;97342.88;5117408;28;20510;-36
2022/01/26 06:30:52;;;;;;;23.40;10.40;;;;;;;-2.06;60.29;97345.19;5116984;28;20442;-35
2022/01/26 06:33:20;;;;;;;25.70;9.90;;;;;;;-2.02;60.41;97350.94;5117122;28;20933;-35
2022/01/26 06:35:47;;;;;;;20.83;8.47;;;;;;;-2.02;60.42;97355.28;5116909;28;20532;-35
2022/01/26 06:38:16;;;;;;;14.17;7.10;;;;;;;-2.10;60.35;97338.63;5117140;28;20512;-34
2022/01/26 06:40:43;;;;;;;23.60;8.83;;;;;;;-2.02;60.54;97344.88;5117177;28;20495;-35
2022/01/26 06:43:13;;;;;;;19.57;8.80;;;;;;;-1.96;61.03;97345.13;5117098;28;20442;-35
2022/01/26 06:45:47;;;;;;;35.47;12.93;;;;;;;-1.95;60.54;97351.16;5116815;28;20917;-35
2022/01/26 06:48:40;;;;;;;37.40;15.63;;;;;;;-1.91;60.45;97342.09;5116530;28;20430;-35
2022/01/26 06:51:08;;;;;;;18.50;9.30;;;;;;;-1.87;60.92;97352.09;5116619;28;20521;-34
2022/01/26 06:53:35;;;;;;;16.87;8.97;;;;;;;-1.85;61.64;97349.31;5116579;28;20799;-35
2022/01/26 06:56:03;;;;;;;40.77;14.10;;;;;;;-1.80;61.45;97352.31;5116621;28;20444;-35
2022/01/26 06:58:30;;;;;;;33.93;14.80;;;;;;;-1.75;61.49;97349.28;5116407;28;20845;-36
2022/01/26 07:00:58;;;;;;;65.00;28.77;;;;;;;-1.74;61.18;97361.31;5116486;28;20453;-36
2022/01/26 07:03:26;;;;;;;37.43;20.50;;;;;;;-1.68;61.51;97347.72;5116414;28;20476;-40
2022/01/26 07:05:53;;;;;;;62.13;27.07;;;;;;;-1.59;62.03;97356.44;5116624;28;20442;-38
2022/01/26 07:08:21;;;;;;;30.90;14.60;;;;;;;-1.51;60.85;97356.53;5116257;28;20482;-37
2022/01/26 07:10:49;;;;;;;78.47;31.67;;;;;;;-1.48;60.67;97358.88;5113407;28;20446;-36
2022/01/26 07:13:17;;;;;;;46.30;15.73;;;;;;;-1.44;60.62;97349.81;5094356;28;20451;-35
2022/01/26 07:23:55;;;;;;;35.83;17.10;;;;;;;-1.30;61.22;97356.28;5095559;28;20423;-36
2022/01/26 07:26:26;;;;;;;46.80;19.20;;;;;;;-1.27;61.44;97346.38;5095880;28;20469;-40
2022/01/26 07:28:53;;;;;;;51.33;21.93;;;;;;;-1.19;61.49;97352.63;5095513;28;20431;-38
2022/01/26 07:31:20;;;;;;;26.47;12.93;;;;;;;-1.12;61.32;97348.47;5094824;28;20442;-37
2022/01/26 07:33:53;;;;;;;24.30;12.73;;;;;;;-1.08;61.49;97355.81;5095322;28;20447;-36
2022/01/26 07:36:20;;;;;;;20.30;12.57;;;;;;;-1.03;61.15;97347.59;5095444;28;20933;-35
2022/01/26 07:38:50;;;;;;;14.90;8.97;;;;;;;-0.98;60.71;97350.53;5095591;28;20848;-37
2022/01/26 07:41:17;;;;;;;22.37;10.00;;;;;;;-0.94;61.20;97340.66;5095345;28;20451;-36
2022/01/26 07:43:45;;;;;;;30.10;13.30;;;;;;;-0.95;60.95;97339.81;5095238;28;20488;-35
2022/01/26 07:46:12;;;;;;;36.67;13.20;;;;;;;-0.98;61.10;97334.91;5095425;28;20442;-37
2022/01/26 07:48:40;;;;;;;38.33;11.80;;;;;;;-0.93;61.06;97339.66;5094886;28;20482;-37
2022/01/26 07:51:09;;;;;;;23.47;11.17;;;;;;;-0.95;60.64;97345.03;5095105;28;20949;-38
2022/01/26 07:53:36;;;;;;;12.13;6.57;;;;;;;-0.97;60.65;97346.16;5095021;28;20445;-36
2022/01/26 07:56:03;;;;;;;26.70;13.57;;;;;;;-0.92;61.52;97349.97;5095053;28;20443;-36
2022/01/26 07:58:30;;;;;;;34.10;12.47;;;;;;;-0.87;61.67;97346.88;5095164;28;20483;-36
2022/01/26 08:00:57;;;;;;;15.73;7.07;;;;;;;-0.81;60.96;97353.31;5095225;28;20447;-35
2022/01/26 08:03:25;;;;;;;15.50;8.60;;;;;;;-0.84;61.30;97350.03;5094828;28;20526;-34
2022/01/26 08:05:52;;;;;;;24.87;9.77;;;;;;;-0.83;61.73;97348.22;5094865;28;20488;-36
2022/01/26 08:08:21;;;;;;;20.70;7.87;;;;;;;-0.78;61.55;97347.78;5094781;28;20439;-37
2022/01/26 08:10:50;;;;;;;20.87;11.13;;;;;;;-0.76;60.90;97353.66;5094687;28;20435;-35
2022/01/26 08:13:17;;;;;;;42.30;13.07;;;;;;;-0.70;61.62;97358.28;5095520;28;20478;-35
2022/01/26 08:15:44;;;;;;;27.50;12.57;;;;;;;-0.71;60.83;97351.41;5106770;28;20442;-35
2022/01/26 08:18:11;;;;;;;21.20;7.27;;;;;;;-0.77;59.93;97357.25;5114856;28;20988;-36
2022/01/26 08:20:40;;;;;;;13.17;6.03;;;;;;;-0.72;60.32;97360.22;5115217;28;20442;-36
2022/01/26 08:23:07;;;;;;;46.67;16.17;;;;;;;-0.70;61.31;97358.28;5114920;28;20477;-37
2022/01/26 08:25:36;;;;;;;173.33;61.93;;;;;;;-0.68;60.67;97366.75;5115065;28;20479;-34
2022/01/26 08:28:08;;;;;;;774.90;371.33;;;;;;;-0.66;60.88;97349.19;5114750;28;20434;-35
2022/01/26 08:30:38;;;;;;;83.50;43.43;;;;;;;-0.59;60.93;97358.03;5114753;28;20916;-35
2022/01/26 08:33:06;;;;;;;128.50;64.40;;;;;;;-0.54;60.88;97352.34;5114624;28;20918;-35
2022/01/26 08:35:33;;;;;;;926.13;471.60;;;;;;;-0.50;60.67;97349.28;5114819;28;20434;-35
2022/01/26 08:38:01;;;;;;;179.97;89.40;;;;;;;-0.46;60.72;97361.03;5100445;28;20479;-36
2022/01/26 08:40:28;;;;;;;40.70;30.07;;;;;;;-0.40;60.65;97353.59;5094225;28;20438;-34
2022/01/26 08:42:57;;;;;;;58.60;38.17;;;;;;;-0.38;59.93;97357.69;5093112;28;20504;-35
2022/01/26 08:45:25;;;;;;;16.53;13.03;;;;;;;-0.30;60.02;97364.72;5094256;28;20492;-36
2022/01/26 08:47:52;;;;;;;19.10;17.03;;;;;;;-0.21;60.77;97353.38;5092847;28;20447;-38
2022/01/26 08:50:19;;;;;;;41.87;31.03;;;;;;;-0.08;61.66;97351.16;5093082;28;20495;-35
2022/01/26 08:52:47;;;;;;;34.67;22.03;;;;;;;-0.24;61.71;97327.56;5093237;28;20467;-37
2022/01/26 08:55:15;;;;;;;39.70;23.53;;;;;;;-0.01;62.85;97344.34;5093247;28;20863;-39
2022/01/26 08:57:42;;;;;;;36.87;18.20;;;;;;;0.05;64.17;97347.31;5093114;28;20446;-39
2022/01/26 09:00:12;;;;;;;17.70;12.93;;;;;;;-0.04;64.78;97344.66;5093459;28;20467;-35
2022/01/26 09:02:39;;;;;;;31.33;17.07;;;;;;;-0.01;65.40;97344.34;5093336;28;20500;-35
2022/01/26 09:05:09;;;;;;;37.60;20.53;;;;;;;-0.10;65.66;97329.63;5093192;28;20435;-35
2022/01/26 09:07:36;;;;;;;46.90;30.33;;;;;;;-0.04;66.23;97355.09;5093528;28;20485;-35
2022/01/26 09:10:06;;;;;;;66.37;33.13;;;;;;;0.05;66.28;97342.91;5092387;28;20447;-35
2022/01/26 09:12:36;;;;;;;79.73;45.20;;;;;;;0.17;66.58;97343.44;5109879;28;20438;-35
2022/01/26 09:15:05;;;;;;;59.57;29.37;;;;;;;0.13;66.50;97339.50;5111599;28;20439;-37
2022/01/26 09:17:35;;;;;;;38.00;20.43;;;;;;;0.20;66.96;97336.13;5111799;28;20452;-35
2022/01/26 09:20:03;;;;;;;123.20;65.10;;;;;;;0.20;67.06;97324.84;5112661;28;20952;-37
2022/01/26 09:22:30;;;;;;;47.30;29.33;;;;;;;0.16;67.99;97313.91;5113598;28;20525;-38
2022/01/26 09:24:57;;;;;;;21.00;14.10;;;;;;;0.33;67.54;97329.63;5113931;28;20802;-34
2022/01/26 09:27:24;;;;;;;45.07;27.30;;;;;;;0.32;67.50;97328.81;5114035;28;20446;-34
2022/01/26 09:29:51;;;;;;;55.23;29.80;;;;;;;0.38;67.65;97324.75;5113748;28;20494;-34
2022/01/26 09:32:19;;;;;;;61.30;31.90;;;;;;;0.42;67.56;97333.91;5113439;28;20449;-34
2022/01/26 09:34:47;;;;;;;40.60;20.03;;;;;;;0.49;67.60;97339.31;5113915;28;20759;-36
2022/01/26 09:37:17;;;;;;;68.57;28.20;;;;;;;0.66;67.37;97335.75;5112375;28;20438;-35
2022/01/26 09:39:46;;;;;;;95.13;40.77;;;;;;;0.78;66.62;97328.44;5104527;28;20518;-37
2022/01/26 09:42:15;;;;;;;135.60;77.10;;;;;;;0.89;66.77;97329.91;5092531;28;20435;-35
2022/01/26 09:44:42;;;;;;;85.53;40.67;;;;;;;1.10;66.64;97327.66;5092552;28;20454;-37
2022/01/26 09:47:11;;;;;;;128.40;50.53;;;;;;;1.14;65.49;97339.41;5091969;28;20927;-35
2022/01/26 09:49:38;;;;;;;107.50;67.13;;;;;;;1.27;65.18;97338.09;5092714;28;20479;-35
2022/01/26 09:52:14;;;;;;;137.33;70.90;;;;;;;1.43;65.66;97343.31;5093166;28;20553;-34
2022/01/26 09:54:41;;;;;;;75.37;31.87;;;;;;;1.48;64.81;97335.78;5110587;28;20828;-35
2022/01/26 09:57:09;;;;;;;58.93;26.70;;;;;;;1.57;64.69;97334.81;5113031;28;20447;-35
2022/01/26 09:59:37;;;;;;;36.60;19.17;;;;;;;1.54;64.63;97324.66;5097180;28;20490;-35
2022/01/26 10:02:05;;;;;;;87.20;38.37;;;;;;;1.58;63.85;97325.16;5097195;28;20447;-35
2022/01/26 10:04:36;;;;;;;59.80;24.37;;;;;;;1.74;64.45;97326.91;5097438;28;20473;-34
2022/01/26 10:07:10;;;;;;;56.63;17.43;;;;;;;1.89;64.03;97317.38;5097211;28;20434;-36
2022/01/26 10:09:48;;;;;;;86.90;38.93;;;;;;;1.91;63.68;97319.84;5096884;28;20430;-35
2022/01/26 10:17:46;;;;;;;29.57;17.67;;;;;;;2.13;63.25;97307.78;5116998;28;21046;-37
2022/01/26 10:20:17;;;;;;;50.80;26.33;;;;;;;2.26;62.63;97318.56;5117236;28;20496;-38
2022/01/26 10:22:45;;;;;;;102.60;53.30;;;;;;;2.37;63.04;97312.94;5116910;28;20970;-36
2022/01/26 10:25:16;;;;;;;63.53;38.07;;;;;;;2.46;63.12;97304.03;5117100;28;20434;-39
2022/01/26 10:27:45;;;;;;;67.13;29.50;;;;;;;2.46;62.28;97311.91;5117000;28;20430;-37
2022/01/26 10:30:14;;;;;;;20.50;12.30;;;;;;;2.41;62.48;97301.13;5116157;28;20445;-35
2022/01/26 10:32:45;;;;;;;58.43;36.13;;;;;;;2.46;62.33;97304.03;5116704;28;20437;-35
2022/01/26 10:35:14;;;;;;;44.17;24.30;;;;;;;2.42;62.44;97305.38;5116877;28;20521;-38
2022/01/26 10:37:49;;;;;;;33.70;16.70;;;;;;;2.36;61.71;97303.44;5116314;28;20443;-35
2022/01/26 10:40:24;;;;;;;42.73;22.90;;;;;;;2.43;62.80;97314.88;5116792;28;20845;-36
2022/01/26 10:43:00;;;;;;;31.33;17.73;;;;;;;2.61;62.77;97317.22;5106928;28;20457;-35
2022/01/26 10:45:44;;;;;;;34.67;18.50;;;;;;;2.57;61.71;97315.94;5096465;28;20442;-37
2022/01/26 10:48:20;;;;;;;82.33;45.93;;;;;;;2.46;63.44;97319.75;5095487;28;20439;-35
2022/01/26 10:53:38;;;;;;;37.57;23.73;;;;;;;2.40;62.83;97306.53;5096201;28;20403;-35
2022/01/26 10:56:07;;;;;;;45.70;25.60;;;;;;;2.33;62.59;97309.03;5096460;28;20427;-35
2022/01/26 10:58:35;;;;;;;37.47;24.50;;;;;;;2.36;63.95;97295.56;5111768;28;20478;-39
2022/01/26 11:01:02;;;;;;;31.93;15.87;;;;;;;2.45;63.99;97302.41;5116619;28;20446;-35
2022/01/26 11:03:29;;;;;;;62.50;45.30;;;;;;;2.43;63.97;97296.53;5116028;28;20960;-35
2022/01/26 11:05:57;;;;;;;67.80;38.50;;;;;;;2.52;64.02;97289.44;5106515;28;20511;-36
2022/01/26 11:08:26;;;;;;;29.27;12.60;;;;;;;2.56;63.60;97282.84;5094626;28;20443;-37
2022/01/26 11:10:54;;;;;;;36.37;19.53;;;;;;;2.63;63.44;97293.47;5097124;28;20522;-38
2022/01/26 11:13:27;;;;;;;47.97;21.63;;;;;;;2.65;63.72;97288.88;5098023;28;20442;-34
2022/01/26 11:15:55;;;;;;;36.57;21.33;;;;;;;2.70;63.95;97278.66;5100300;28;20484;-40
2022/01/26 11:18:29;;;;;;;32.20;16.10;;;;;;;2.64;63.93;97289.84;5096488;28;20432;-37
2022/01/26 11:20:56;;;;;;;129.23;63.50;;;;;;;2.66;63.84;97293.09;5100344;28;20882;-36
2022/01/26 11:23:35;;;;;;;50.33;31.70;;;;;;;2.63;64.52;97283.78;5096112;28;20508;-39
2022/01/26 11:26:03;;;;;;;21.07;18.97;;;;;;;2.56;64.42;97287.25;5095921;28;20496;-35
2022/01/26 11:28:32;;;;;;;17.60;12.60;;;;;;;2.53;64.80;97283.19;5095936;28;20443;-35
2022/01/26 11:31:05;;;;;;;20.30;11.87;;;;;;;2.58;65.07;97282.66;5095313;28;20450;-34
2022/01/26 11:33:35;;;;;;;20.83;9.30;;;;;;;2.53;64.66;97282.38;5095493;28;20435;-35
2022/01/26 11:36:04;;;;;;;25.27;16.30;;;;;;;2.55;64.39;97283.03;5095365;28;20431;-34
2022/01/26 11:39:14;;;;;;;30.53;19.53;;;;;;;2.49;64.31;97271.41;5095315;28;20945;-34
2022/01/26 11:47:19;;;;;;;49.20;22.30;;;;;;;2.46;65.29;97256.84;5095502;28;20423;-35
2022/01/26 11:49:47;;;;;;;38.33;18.63;;;;;;;2.56;64.85;97271.53;5095082;28;20479;-34
2022/01/26 11:52:22;;;;;;;62.00;28.07;;;;;;;2.63;65.36;97264.63;5095001;28;20447;-34
2022/01/26 11:54:52;;;;;;;42.63;17.03;;;;;;;2.66;65.27;97261.63;5101371;28;20438;-34
2022/01/26 11:57:22;;;;;;;42.97;20.40;;;;;;;2.74;65.41;97258.97;5100506;28;20442;-35
2022/01/26 12:00:03;;;;;;;32.73;13.47;;;;;;;2.87;65.48;97259.19;5096737;28;20526;-36
2022/01/26 12:02:49;;;;;;;30.57;13.50;;;;;;;2.89;65.13;97260.84;5094972;28;20423;-35
2022/01/26 12:05:21;;;;;;;33.60;18.13;;;;;;;2.85;65.11;97261.16;5094817;28;20432;-37
2022/01/26 12:07:49;;;;;;;19.63;10.77;;;;;;;2.91;64.93;97258.84;5095141;28;20507;-36
2022/01/26 12:10:23;;;;;;;29.93;15.13;;;;;;;2.74;65.69;97238.00;5094659;28;20451;-34
2022/01/26 12:12:59;;;;;;;21.87;12.90;;;;;;;2.94;65.50;97258.50;5095021;28;20473;-37
2022/01/26 12:15:33;;;;;;;24.23;12.93;;;;;;;2.80;65.25;97258.28;5094518;28;20518;-35
2022/01/26 12:18:16;;;;;;;31.80;17.13;;;;;;;2.93;65.58;97262.13;5101568;28;20472;-36
2022/01/26 12:34:59;;;;;;;112.67;56.80;;;;;;;2.81;66.10;97265.13;5032158;28;20798;-36
2022/01/26 12:37:38;;;;;;;154.83;66.20;;;;;;;2.84;66.27;97254.31;5043037;28;20444;-36
2022/01/26 12:43:00;;;;;;;305.00;129.73;;;;;;;2.75;66.98;97254.53;5052011;28;20467;-35
2022/01/26 12:45:30;;;;;;;183.00;72.37;;;;;;;2.79;67.10;97254.00;5050732;28;20445;-38
2022/01/26 12:47:59;;;;;;;128.50;51.63;;;;;;;2.82;67.26;97251.03;5050691;28;20449;-36
2022/01/26 12:50:28;;;;;;;70.80;32.07;;;;;;;2.85;67.16;97250.69;5012012;28;20981;-36
2022/01/26 12:52:57;;;;;;;95.27;42.77;;;;;;;2.83;67.10;97247.41;5011202;28;20508;-37
2022/01/26 12:55:29;;;;;;;56.10;31.00;;;;;;;2.83;67.26;97247.41;5012020;28;20811;-39
2022/01/26 12:57:57;;;;;;;87.40;44.27;;;;;;;2.74;67.31;97248.47;5011859;28;20450;-40
2022/01/26 13:00:26;;;;;;;64.30;34.47;;;;;;;2.80;67.47;97246.97;5012489;28;20497;-35
2022/01/26 13:02:54;;;;;;;62.30;33.43;;;;;;;2.83;67.86;97255.28;5011799;28;20445;-34
2022/01/26 13:05:27;;;;;;;20.33;13.47;;;;;;;2.89;67.19;97251.16;5011863;28;20446;-34
2022/01/26 13:08:01;;;;;;;48.50;27.90;;;;;;;2.90;67.38;97242.28;5011529;28;20454;-37
2022/01/26 13:10:30;;;;;;;50.07;27.30;;;;;;;2.98;67.89;97238.78;5040143;28;20452;-34
2022/01/26 13:13:09;;;;;;;49.30;27.37;;;;;;;2.97;66.91;97253.72;5073172;28;20509;-35